sensor_id;sensor_type;location;lat;lon;timestamp;P1;durP1;ratioP1;P2;durP2;ratioP2
71902;SDS011;59778;50.310;18.780;2023-05-16T00:08:31;26.70;;;12.13;;
71902;SDS011;59778;50.310;18.780;2023-05-16T00:23:53;19.00;;;11.17;;
71902;SDS011;59778;50.310;18.780;2023-05-16T00:39:14;20.33;;;12.30;;
71902;SDS011;59778;50.310;18.780;2023-05-16T00:54:36;22.70;;;12.03;;
71902;SDS011;59778;50.310;18.780;2023-05-16T01:09:58;22.27;;;11.27;;
71902;SDS011;59778;50.310;18.780;2023-05-16T01:56:28;20.03;;;10.20;;
71902;SDS011;59778;50.310;18.780;2023-05-16T02:11:51;18.83;;;11.07;;
71902;SDS011;59778;50.310;18.780;2023-05-16T02:27:13;17.70;;;9.60;;
71902;SDS011;59778;50.310;18.780;2023-05-16T02:42:34;17.30;;;8.73;;
71902;SDS011;59778;50.310;18.780;2023-05-16T02:57:55;19.60;;;8.40;;
71902;SDS011;59778;50.310;18.780;2023-05-16T03:13:16;14.70;;;7.73;;
71902;SDS011;59778;50.310;18.780;2023-05-16T03:28:38;16.60;;;9.27;;
71902;SDS011;59778;50.310;18.780;2023-05-16T03:43:59;16.23;;;8.53;;
71902;SDS011;59778;50.310;18.780;2023-05-16T03:59:20;15.60;;;8.47;;
71902;SDS011;59778;50.310;18.780;2023-05-16T04:14:42;18.50;;;9.47;;
71902;SDS011;59778;50.310;18.780;2023-05-16T04:30:03;18.93;;;9.40;;
71902;SDS011;59778;50.310;18.780;2023-05-16T04:45:25;18.40;;;10.83;;
71902;SDS011;59778;50.310;18.780;2023-05-16T05:00:46;20.37;;;10.40;;
71902;SDS011;59778;50.310;18.780;2023-05-16T05:16:07;17.10;;;10.07;;
71902;SDS011;59778;50.310;18.780;2023-05-16T05:31:29;19.57;;;11.23;;
71902;SDS011;59778;50.310;18.780;2023-05-16T05:46:50;16.83;;;9.50;;
71902;SDS011;59778;50.310;18.780;2023-05-16T06:02:12;14.90;;;7.37;;
71902;SDS011;59778;50.310;18.780;2023-05-16T06:17:33;11.23;;;6.70;;
71902;SDS011;59778;50.310;18.780;2023-05-16T06:32:55;11.50;;;6.10;;
71902;SDS011;59778;50.310;18.780;2023-05-16T06:48:16;11.00;;;6.47;;
71902;SDS011;59778;50.310;18.780;2023-05-16T07:03:42;17.07;;;8.57;;
71902;SDS011;59778;50.310;18.780;2023-05-16T07:19:05;12.47;;;7.77;;
71902;SDS011;59778;50.310;18.780;2023-05-16T07:34:26;11.90;;;6.63;;
71902;SDS011;59778;50.310;18.780;2023-05-16T07:49:48;11.17;;;7.03;;
71902;SDS011;59778;50.310;18.780;2023-05-16T08:05:09;12.83;;;7.13;;
71902;SDS011;59778;50.310;18.780;2023-05-16T08:20:30;10.47;;;6.07;;
71902;SDS011;59778;50.310;18.780;2023-05-16T08:35:51;8.60;;;6.00;;
71902;SDS011;59778;50.310;18.780;2023-05-16T08:51:13;8.93;;;6.30;;
71902;SDS011;59778;50.310;18.780;2023-05-16T09:06:38;11.17;;;7.47;;
71902;SDS011;59778;50.310;18.780;2023-05-16T09:22:00;9.37;;;5.97;;
71902;SDS011;59778;50.310;18.780;2023-05-16T09:37:23;9.67;;;6.50;;
71902;SDS011;59778;50.310;18.780;2023-05-16T09:52:46;9.77;;;6.07;;
71902;SDS011;59778;50.310;18.780;2023-05-16T10:08:07;13.07;;;7.30;;
71902;SDS011;59778;50.310;18.780;2023-05-16T10:23:29;13.23;;;8.47;;
71902;SDS011;59778;50.310;18.780;2023-05-16T10:38:52;12.00;;;7.07;;
71902;SDS011;59778;50.310;18.780;2023-05-16T10:54:14;12.77;;;7.10;;
71902;SDS011;59778;50.310;18.780;2023-05-16T11:09:40;11.40;;;6.37;;
71902;SDS011;59778;50.310;18.780;2023-05-16T11:25:05;10.23;;;5.90;;
71902;SDS011;59778;50.310;18.780;2023-05-16T11:40:27;9.60;;;5.50;;
71902;SDS011;59778;50.310;18.780;2023-05-16T11:55:48;11.30;;;4.63;;
71902;SDS011;59778;50.310;18.780;2023-05-16T12:11:12;10.40;;;4.83;;
71902;SDS011;59778;50.310;18.780;2023-05-16T12:26:34;10.23;;;4.23;;
71902;SDS011;59778;50.310;18.780;2023-05-16T12:41:56;9.87;;;4.10;;
71902;SDS011;59778;50.310;18.780;2023-05-16T12:57:25;9.17;;;4.47;;
71902;SDS011;59778;50.310;18.780;2023-05-16T13:12:46;10.63;;;5.00;;
71902;SDS011;59778;50.310;18.780;2023-05-16T13:28:07;8.87;;;3.90;;
71902;SDS011;59778;50.310;18.780;2023-05-16T13:43:31;9.67;;;4.03;;
71902;SDS011;59778;50.310;18.780;2023-05-16T13:58:52;8.77;;;4.50;;
71902;SDS011;59778;50.310;18.780;2023-05-16T14:14:14;10.20;;;5.40;;
71902;SDS011;59778;50.310;18.780;2023-05-16T14:29:35;18.17;;;10.77;;
71902;SDS011;59778;50.310;18.780;2023-05-16T14:44:57;12.40;;;7.90;;
71902;SDS011;59778;50.310;18.780;2023-05-16T15:00:20;13.60;;;8.93;;
71902;SDS011;59778;50.310;18.780;2023-05-16T15:15:44;19.03;;;11.50;;
71902;SDS011;59778;50.310;18.780;2023-05-16T15:31:06;18.07;;;12.50;;
71902;SDS011;59778;50.310;18.780;2023-05-16T15:46:27;16.30;;;8.47;;
71902;SDS011;59778;50.310;18.780;2023-05-16T16:01:52;13.87;;;8.80;;
71902;SDS011;59778;50.310;18.780;2023-05-16T16:17:14;13.27;;;7.43;;
71902;SDS011;59778;50.310;18.780;2023-05-16T16:32:36;18.17;;;9.00;;
71902;SDS011;59778;50.310;18.780;2023-05-16T16:47:57;23.53;;;13.83;;
71902;SDS011;59778;50.310;18.780;2023-05-16T17:03:19;26.37;;;17.23;;
71902;SDS011;59778;50.310;18.780;2023-05-16T17:18:40;30.17;;;18.67;;
71902;SDS011;59778;50.310;18.780;2023-05-16T17:34:02;26.70;;;16.83;;
71902;SDS011;59778;50.310;18.780;2023-05-16T17:49:23;23.63;;;13.73;;
71902;SDS011;59778;50.310;18.780;2023-05-16T18:04:45;22.23;;;14.63;;
71902;SDS011;59778;50.310;18.780;2023-05-16T18:20:08;28.07;;;18.00;;
71902;SDS011;59778;50.310;18.780;2023-05-16T18:35:30;27.53;;;18.63;;
71902;SDS011;59778;50.310;18.780;2023-05-16T18:50:51;30.30;;;20.27;;
71902;SDS011;59778;50.310;18.780;2023-05-16T19:06:13;31.07;;;21.03;;
71902;SDS011;59778;50.310;18.780;2023-05-16T19:21:34;40.67;;;24.33;;
71902;SDS011;59778;50.310;18.780;2023-05-16T19:36:56;30.87;;;19.60;;
71902;SDS011;59778;50.310;18.780;2023-05-16T19:52:19;23.57;;;14.10;;
71902;SDS011;59778;50.310;18.780;2023-05-16T20:07:41;23.00;;;14.83;;
71902;SDS011;59778;50.310;18.780;2023-05-16T20:23:03;25.40;;;12.57;;
71902;SDS011;59778;50.310;18.780;2023-05-16T20:38:44;26.87;;;17.60;;
71902;SDS011;59778;50.310;18.780;2023-05-16T20:54:05;29.50;;;17.10;;
71902;SDS011;59778;50.310;18.780;2023-05-16T21:09:26;17.93;;;10.37;;
71902;SDS011;59778;50.310;18.780;2023-05-16T21:24:48;21.53;;;12.43;;
71902;SDS011;59778;50.310;18.780;2023-05-16T21:40:09;28.40;;;19.23;;
71902;SDS011;59778;50.310;18.780;2023-05-16T21:55:34;11.83;;;7.57;;
71902;SDS011;59778;50.310;18.780;2023-05-16T22:10:56;13.67;;;8.97;;
71902;SDS011;59778;50.310;18.780;2023-05-16T22:26:17;12.03;;;7.03;;
71902;SDS011;59778;50.310;18.780;2023-05-16T22:41:38;16.87;;;8.40;;
71902;SDS011;59778;50.310;18.780;2023-05-16T22:57:00;14.27;;;6.87;;
71902;SDS011;59778;50.310;18.780;2023-05-16T23:12:21;10.13;;;6.07;;
71902;SDS011;59778;50.310;18.780;2023-05-16T23:27:45;9.40;;;5.93;;
71902;SDS011;59778;50.310;18.780;2023-05-16T23:43:06;12.10;;;6.00;;
71902;SDS011;59778;50.310;18.780;2023-05-16T23:58:27;18.40;;;9.50;;
